Time;durP1;ratioP1;P1;durP2;ratioP2;P2;SDS_P1;SDS_P2;PMS_P1;PMS_P2;Temp;Humidity;BMP_temperature;BMP_pressure;BME280_temperature;BME280_humidity;BME280_pressure;Samples;Min_cycle;Max_cycle;Signal;HPM_P1;HPM_P2
2022/10/04 00:00:23;;;;;;;;;;;15.80;99.90;;;;;;5011843;28;19909;-26
2022/10/04 00:02:50;;;;;;;;;;;15.90;99.90;;;;;;5011978;28;20458;-26
2022/10/04 00:05:17;;;;;;;;;;;15.80;99.90;;;;;;5012011;28;20274;-26
2022/10/04 00:07:50;;;;;;;;;;;15.80;99.90;;;;;;5011737;28;19992;-26
2022/10/04 00:10:15;;;;;;;;;;;15.80;99.90;;;;;;5011661;28;19910;-26
2022/10/04 00:12:51;;;;;;;;;;;15.80;99.90;;;;;;5012243;28;19912;-26
2022/10/04 00:15:19;;;;;;;;;;;15.80;99.90;;;;;;5011846;28;20330;-26
2022/10/04 00:17:58;;;;;;;;;;;15.80;99.90;;;;;;5012016;28;19960;-26
2022/10/04 00:20:43;;;;;;;;;;;15.80;99.90;;;;;;5011719;28;19905;-26
2022/10/04 00:23:24;;;;;;;;;;;15.80;99.90;;;;;;5011984;28;19999;-26
2022/10/04 00:25:59;;;;;;;;;;;15.80;99.90;;;;;;5011823;28;19909;-26
2022/10/04 00:28:25;;;;;;;;;;;15.80;99.90;;;;;;5011651;28;19944;-26
2022/10/04 00:31:07;;;;;;;;;;;15.80;99.90;;;;;;5011686;28;19947;-26
2022/10/04 00:33:37;;;;;;;;;;;15.80;99.90;;;;;;5011951;28;19906;-26
2022/10/04 00:36:26;;;;;;;;;;;15.80;99.90;;;;;;5011752;28;20314;-26
2022/10/04 00:39:05;;;;;;;;;;;15.80;99.90;;;;;;5008433;28;19937;-26
2022/10/04 00:41:53;;;;;;;;;;;15.80;99.90;;;;;;5011336;28;20271;-26
2022/10/04 00:44:38;;;;;;;;;;;15.80;99.90;;;;;;5008555;28;19988;-26
2022/10/04 00:47:13;;;;;;;;;;;15.80;99.90;;;;;;5011634;28;20393;-26
2022/10/04 00:49:40;;;;;;;;;;;15.80;99.90;;;;;;5011435;28;19905;-26
2022/10/04 00:52:13;;;;;;;;;;;15.70;99.90;;;;;;5011413;28;20003;-26
2022/10/04 00:54:42;;;;;;;;;;;15.70;99.90;;;;;;5011615;28;19952;-26
2022/10/04 00:57:10;;;;;;;;;;;15.80;99.90;;;;;;5011522;28;19912;-26
2022/10/04 00:59:41;;;;;;;;;;;15.70;99.90;;;;;;5011294;28;20263;-26
2022/10/04 01:02:14;;;;;;;;;;;15.70;99.90;;;;;;5011256;28;20004;-26
2022/10/04 01:05:00;;;;;;;;;;;15.70;99.90;;;;;;5013601;28;19910;-26
2022/10/04 01:07:28;;;;;;;;;;;15.70;99.90;;;;;;5015017;28;20282;-26
2022/10/04 01:09:56;;;;;;;;;;;15.70;99.90;;;;;;5015141;28;20425;-27
2022/10/04 01:12:38;;;;;;;;;;;15.70;99.90;;;;;;5014937;28;20354;-27
2022/10/04 01:15:06;;;;;;;;;;;15.70;99.90;;;;;;5014885;28;20302;-27
2022/10/04 01:17:32;;;;;;;;;;;15.70;99.90;;;;;;5014660;28;20282;-27
2022/10/04 01:19:57;;;;;;;;;;;15.70;99.90;;;;;;5014702;28;19909;-27
2022/10/04 01:22:32;;;;;;;;;;;15.70;99.90;;;;;;5015061;28;20283;-27
2022/10/04 01:24:57;;;;;;;;;;;15.70;99.90;;;;;;5014828;28;19916;-27
2022/10/04 01:27:39;;;;;;;;;;;15.70;99.90;;;;;;5014561;28;19909;-27
2022/10/04 01:30:07;;;;;;;;;;;15.70;99.90;;;;;;5014521;28;19909;-27
2022/10/04 01:32:33;;;;;;;;;;;15.70;99.90;;;;;;5013325;28;20404;-27
2022/10/04 01:34:59;;;;;;;;;;;15.70;99.90;;;;;;5014601;28;19909;-27
2022/10/04 01:37:24;;;;;;;;;;;15.70;99.90;;;;;;5014458;28;20447;-27
2022/10/04 01:39:50;;;;;;;;;;;15.70;99.90;;;;;;5014148;28;19905;-27
2022/10/04 01:42:22;;;;;;;;;;;15.70;99.90;;;;;;5014309;28;19914;-27
2022/10/04 01:44:54;;;;;;;;;;;15.60;99.90;;;;;;5014347;28;19905;-27
2022/10/04 01:47:23;;;;;;;;;;;15.60;99.90;;;;;;5014380;28;19912;-27
2022/10/04 01:49:50;;;;;;;;;;;15.60;99.90;;;;;;5014091;28;19952;-27
2022/10/04 01:52:25;;;;;;;;;;;15.60;99.90;;;;;;5014077;28;19960;-27
2022/10/04 01:54:59;;;;;;;;;;;15.60;99.90;;;;;;5014157;28;20252;-27
2022/10/04 01:57:46;;;;;;;;;;;15.60;99.90;;;;;;5014132;28;20004;-27
2022/10/04 02:00:12;;;;;;;;;;;15.60;99.90;;;;;;5013870;28;20375;-27
2022/10/04 02:02:56;;;;;;;;;;;15.60;99.90;;;;;;5013804;28;19955;-27
2022/10/04 02:05:29;;;;;;;;;;;15.60;99.90;;;;;;5014010;28;19968;-27
2022/10/04 02:07:55;;;;;;;;;;;15.60;99.90;;;;;;5013701;28;20363;-27
2022/10/04 02:10:22;;;;;;;;;;;15.60;99.90;;;;;;5013816;28;19908;-27
2022/10/04 02:12:51;;;;;;;;;;;15.60;99.90;;;;;;5013869;28;20343;-27
2022/10/04 02:15:18;;;;;;;;;;;15.50;99.90;;;;;;5013397;28;19909;-27
2022/10/04 02:17:45;;;;;;;;;;;15.60;99.90;;;;;;5013635;28;19905;-27
2022/10/04 02:20:19;;;;;;;;;;;15.60;99.90;;;;;;5013499;28;19909;-27
2022/10/04 02:22:45;;;;;;;;;;;15.60;99.90;;;;;;5013541;28;19920;-27
2022/10/04 02:25:13;;;;;;;;;;;15.60;99.90;;;;;;5013599;28;19949;-27
2022/10/04 02:27:38;;;;;;;;;;;15.60;99.90;;;;;;5013367;28;19905;-27
2022/10/04 02:30:06;;;;;;;;;;;15.50;99.90;;;;;;5013623;28;20337;-27
2022/10/04 02:35:17;;;;;;;;;;;15.50;99.80;;;;;;5013453;28;20328;-27
2022/10/04 02:37:42;;;;;;;;;;;15.50;99.80;;;;;;5013315;28;19944;-27
2022/10/04 02:40:12;;;;;;;;;;;15.50;99.80;;;;;;5013176;28;20327;-27
2022/10/04 02:42:49;;;;;;;;;;;15.50;99.80;;;;;;5013405;28;20278;-27
2022/10/04 02:45:27;;;;;;;;;;;15.50;99.70;;;;;;5013442;28;19909;-27
2022/10/04 02:47:56;;;;;;;;;;;15.50;99.70;;;;;;5013194;28;19983;-27
2022/10/04 02:50:30;;;;;;;;;;;15.50;99.70;;;;;;5012978;28;20442;-27
2022/10/04 02:53:03;;;;;;;;;;;15.50;99.70;;;;;;5013061;28;19906;-27
2022/10/04 02:55:29;;;;;;;;;;;15.50;99.70;;;;;;5012986;28;19906;-27
2022/10/04 02:57:57;;;;;;;;;;;15.50;99.70;;;;;;5013131;28;19905;-27
2022/10/04 03:00:27;;;;;;;;;;;15.50;99.70;;;;;;5012746;28;19949;-27
2022/10/04 03:03:12;;;;;;;;;;;15.50;99.60;;;;;;5012836;28;19914;-27
2022/10/04 03:05:39;;;;;;;;;;;15.50;99.60;;;;;;5012969;28;19905;-27
2022/10/04 03:08:04;;;;;;;;;;;15.50;99.50;;;;;;5012603;28;19913;-27
2022/10/04 03:10:30;;;;;;;;;;;15.40;99.50;;;;;;5012607;28;20380;-26
2022/10/04 03:12:56;;;;;;;;;;;15.50;99.50;;;;;;5012688;28;19931;-26
2022/10/04 03:15:21;;;;;;;;;;;15.50;99.50;;;;;;5012736;28;19906;-27
2022/10/04 03:17:49;;;;;;;;;;;15.40;99.50;;;;;;5012456;28;20283;-27
2022/10/04 03:20:20;;;;;;;;;;;15.40;99.50;;;;;;5012753;28;19920;-27
2022/10/04 03:22:47;;;;;;;;;;;15.40;99.50;;;;;;5012522;28;19909;-27
2022/10/04 03:25:16;;;;;;;;;;;15.40;99.40;;;;;;5012519;28;19969;-27
2022/10/04 03:27:42;;;;;;;;;;;15.40;99.40;;;;;;5011464;28;19905;-27
2022/10/04 03:30:11;;;;;;;;;;;15.40;99.40;;;;;;5012221;28;19988;-26
2022/10/04 03:32:38;;;;;;;;;;;15.40;99.30;;;;;;5012432;28;19909;-27
2022/10/04 03:35:06;;;;;;;;;;;15.40;99.30;;;;;;5012373;28;19924;-27
2022/10/04 03:37:34;;;;;;;;;;;15.40;99.30;;;;;;5012334;28;19913;-27
2022/10/04 03:40:00;;;;;;;;;;;15.40;99.30;;;;;;5012260;28;19936;-27
2022/10/04 03:42:33;;;;;;;;;;;15.40;99.30;;;;;;5012259;28;19910;-27
2022/10/04 03:45:00;;;;;;;;;;;15.40;99.30;;;;;;5012213;28;19995;-27
2022/10/04 03:47:28;;;;;;;;;;;15.40;99.20;;;;;;5012253;28;19943;-27
2022/10/04 03:49:54;;;;;;;;;;;15.40;99.30;;;;;;5012063;28;20013;-27
2022/10/04 03:52:24;;;;;;;;;;;15.40;99.20;;;;;;5012143;28;19910;-27
2022/10/04 03:54:51;;;;;;;;;;;15.40;99.20;;;;;;5012274;28;19952;-27
2022/10/04 03:57:16;;;;;;;;;;;15.40;99.20;;;;;;5011967;28;19956;-27
2022/10/04 03:59:42;;;;;;;;;;;15.30;99.10;;;;;;5011957;28;19941;-27
2022/10/04 04:02:16;;;;;;;;;;;15.40;99.20;;;;;;5012014;28;19909;-27
2022/10/04 04:04:52;;;;;;;;;;;15.40;99.10;;;;;;5012156;28;20369;-27
2022/10/04 04:07:33;;;;;;;;;;;15.40;99.10;;;;;;5012074;28;19905;-27
2022/10/04 04:10:04;;;;;;;;;;;15.40;99.10;;;;;;5011638;28;19920;-27
2022/10/04 04:12:45;;;;;;;;;;;15.30;99.30;;;;;;5011887;28;20362;-27
2022/10/04 04:15:11;;;;;;;;;;;15.30;99.00;;;;;;5012033;28;19952;-27
2022/10/04 04:17:44;;;;;;;;;;;15.30;99.00;;;;;;5011854;28;19932;-27
2022/10/04 04:20:39;;;;;;;;;;;15.30;99.00;;;;;;5011666;28;19996;-27
2022/10/04 04:23:13;;;;;;;;;;;15.30;99.00;;;;;;5007123;28;20425;-27
2022/10/04 04:25:41;;;;;;;;;;;15.30;99.00;;;;;;5011931;28;20339;-27
2022/10/04 04:28:13;;;;;;;;;;;15.30;98.90;;;;;;5010673;28;20318;-27
2022/10/04 04:30:43;;;;;;;;;;;15.30;98.90;;;;;;5011651;28;20000;-27
2022/10/04 04:33:13;;;;;;;;;;;15.30;98.90;;;;;;5012042;28;20266;-27
2022/10/04 04:35:39;;;;;;;;;;;15.30;98.90;;;;;;5012044;28;19905;-27
2022/10/04 04:38:20;;;;;;;;;;;15.30;98.90;;;;;;5011855;28;19912;-27
2022/10/04 04:40:45;;;;;;;;;;;15.30;98.90;;;;;;5015457;28;19951;-27
2022/10/04 04:43:13;;;;;;;;;;;15.30;98.90;;;;;;5015748;28;20325;-27
2022/10/04 04:45:39;;;;;;;;;;;15.30;98.80;;;;;;5015789;28;20406;-27
2022/10/04 04:48:06;;;;;;;;;;;15.30;98.80;;;;;;5015752;28;19959;-27
2022/10/04 04:50:36;;;;;;;;;;;15.30;98.80;;;;;;5016066;28;19974;-27
2022/10/04 04:53:15;;;;;;;;;;;15.30;98.80;;;;;;5015877;28;19906;-27
2022/10/04 04:55:44;;;;;;;;;;;15.30;98.80;;;;;;5015445;28;19909;-27
2022/10/04 04:58:21;;;;;;;;;;;15.30;98.80;;;;;;5015207;28;19956;-27
2022/10/04 05:00:56;;;;;;;;;;;15.20;98.70;;;;;;5015315;28;19984;-27
2022/10/04 05:03:21;;;;;;;;;;;15.20;98.70;;;;;;5015202;28;19910;-27
2022/10/04 05:05:47;;;;;;;;;;;15.20;98.70;;;;;;5015177;28;20359;-27
2022/10/04 05:08:13;;;;;;;;;;;15.20;98.60;;;;;;5014753;28;19948;-27
2022/10/04 05:10:59;;;;;;;;;;;15.20;98.60;;;;;;5014772;28;19913;-27
2022/10/04 05:13:29;;;;;;;;;;;15.20;98.60;;;;;;5014596;28;19909;-27
2022/10/04 05:15:57;;;;;;;;;;;15.20;98.60;;;;;;5015346;28;19909;-27
2022/10/04 05:18:27;;;;;;;;;;;15.20;98.60;;;;;;5014726;28;20020;-27
2022/10/04 05:20:54;;;;;;;;;;;15.20;98.60;;;;;;5014680;28;19956;-27
2022/10/04 05:23:19;;;;;;;;;;;15.20;98.60;;;;;;5014703;28;19917;-27
2022/10/04 05:25:46;;;;;;;;;;;15.20;98.60;;;;;;5014827;28;19909;-27
2022/10/04 05:28:13;;;;;;;;;;;15.20;98.50;;;;;;5014617;28;19909;-27
2022/10/04 05:30:57;;;;;;;;;;;15.20;98.50;;;;;;5014442;28;19949;-27
2022/10/04 05:33:25;;;;;;;;;;;15.20;98.50;;;;;;5014538;28;19916;-27
2022/10/04 05:35:50;;;;;;;;;;;15.20;98.50;;;;;;5014567;28;19906;-27
2022/10/04 05:38:22;;;;;;;;;;;15.20;98.50;;;;;;5013030;28;19910;-27
2022/10/04 05:40:55;;;;;;;;;;;15.20;98.50;;;;;;5014396;28;19905;-27
2022/10/04 05:43:24;;;;;;;;;;;15.20;98.50;;;;;;5014354;28;20260;-27
2022/10/04 05:46:08;;;;;;;;;;;15.20;98.50;;;;;;5014296;28;19906;-27
2022/10/04 05:48:33;;;;;;;;;;;15.20;98.40;;;;;;5014095;28;19960;-27
2022/10/04 05:50:59;;;;;;;;;;;15.20;98.40;;;;;;5013196;28;19936;-27
2022/10/04 05:53:34;;;;;;;;;;;15.10;98.40;;;;;;5014237;28;19910;-27
2022/10/04 05:56:10;;;;;;;;;;;15.20;98.40;;;;;;5014392;28;19912;-27
2022/10/04 05:58:44;;;;;;;;;;;15.10;98.40;;;;;;5013921;28;20393;-27
2022/10/04 06:01:19;;;;;;;;;;;15.10;98.40;;;;;;5014053;28;19905;-27
2022/10/04 06:04:03;;;;;;;;;;;15.10;98.40;;;;;;5014056;28;19909;-27
2022/10/04 06:06:31;;;;;;;;;;;15.10;98.40;;;;;;5013809;28;19967;-27
2022/10/04 06:09:15;;;;;;;;;;;15.10;98.30;;;;;;5013661;28;19920;-27
2022/10/04 06:11:46;;;;;;;;;;;15.10;98.40;;;;;;5013909;28;19906;-27
2022/10/04 06:14:21;;;;;;;;;;;15.10;98.40;;;;;;5013818;28;20004;-27
2022/10/04 06:17:05;;;;;;;;;;;15.10;98.40;;;;;;5013676;28;19913;-27
2022/10/04 06:19:51;;;;;;;;;;;15.10;98.40;;;;;;5013517;28;20357;-27
2022/10/04 06:22:17;;;;;;;;;;;15.10;98.40;;;;;;5013454;28;19917;-27
2022/10/04 06:24:52;;;;;;;;;;;15.10;98.30;;;;;;5013558;28;19912;-27
2022/10/04 06:27:22;;;;;;;;;;;15.10;98.30;;;;;;5013460;28;20330;-27
2022/10/04 06:30:07;;;;;;;;;;;15.10;98.30;;;;;;5013603;28;19905;-27
2022/10/04 06:32:36;;;;;;;;;;;15.10;98.30;;;;;;5013123;28;19913;-27
2022/10/04 06:35:11;;;;;;;;;;;15.10;98.30;;;;;;5013360;28;19913;-27
2022/10/04 06:37:39;;;;;;;;;;;15.10;98.30;;;;;;5013174;28;19912;-27
2022/10/04 06:40:10;;;;;;;;;;;15.10;98.30;;;;;;5013104;28;20363;-27
2022/10/04 06:42:54;;;;;;;;;;;15.10;98.30;;;;;;5013427;28;20015;-27
2022/10/04 06:45:36;;;;;;;;;;;15.10;98.30;;;;;;5013221;28;19916;-27
2022/10/04 06:48:02;;;;;;;;;;;15.10;98.30;;;;;;5013129;28;19905;-27
2022/10/04 06:50:33;;;;;;;;;;;15.10;98.30;;;;;;5013039;28;19909;-27
2022/10/04 06:53:22;;;;;;;;;;;15.10;98.30;;;;;;5013267;28;19913;-27
2022/10/04 06:56:07;;;;;;;;;;;15.10;98.30;;;;;;5009911;28;19928;-27
2022/10/04 06:58:52;;;;;;;;;;;15.10;98.30;;;;;;5012637;28;20300;-27
2022/10/04 07:01:43;;;;;;;;;;;15.10;98.30;;;;;;5012612;28;19905;-27
2022/10/04 07:04:30;;;;;;;;;;;15.10;98.30;;;;;;5011609;28;19947;-27
2022/10/04 07:10:10;;;;;;;;;;;15.00;98.30;;;;;;5035590;22;20465;-26
2022/10/04 07:12:39;;;;;;;;;;;15.00;98.30;;;;;;5012998;28;20000;-26
2022/10/04 07:15:11;;;;;;;;;;;15.10;98.30;;;;;;5012970;28;19905;-25
2022/10/04 07:17:39;;;;;;;;;;;15.10;98.30;;;;;;5012980;28;19953;-26
2022/10/04 07:20:06;;;;;;;;;;;15.00;98.30;;;;;;5012431;28;19905;-24
2022/10/04 07:22:34;;;;;;;;;;;15.00;98.30;;;;;;5012625;28;20361;-25
2022/10/04 07:25:13;;;;;;;;;;;15.00;98.30;;;;;;5012451;28;19905;-24
2022/10/04 07:30:47;;;;;;;;;;;15.10;98.30;;;;;;5012699;28;20004;-26
2022/10/04 07:33:17;;;;;;;;;;;15.00;98.30;;;;;;5012370;28;20329;-25
2022/10/04 07:35:45;;;;;;;;;;;15.00;98.40;;;;;;5012546;28;19909;-26
2022/10/04 07:38:17;;;;;;;;;;;15.00;98.40;;;;;;5012264;28;20329;-26
2022/10/04 07:41:06;;;;;;;;;;;15.00;98.40;;;;;;5012231;28;20000;-25
2022/10/04 07:43:33;;;;;;;;;;;15.00;98.40;;;;;;5012282;28;19910;-26
2022/10/04 07:46:02;;;;;;;;;;;15.00;98.40;;;;;;5012345;28;20254;-26
2022/10/04 07:48:28;;;;;;;;;;;15.00;98.40;;;;;;5012088;28;20275;-26
2022/10/04 07:51:12;;;;;;;;;;;15.00;98.50;;;;;;5012040;28;19916;-27
2022/10/04 07:53:51;;;;;;;;;;;15.00;98.50;;;;;;5012128;28;19912;-26
2022/10/04 07:56:32;;;;;;;;;;;15.00;98.50;;;;;;5010694;28;20004;-26
2022/10/04 07:59:21;;;;;;;;;;;15.00;98.50;;;;;;5011869;28;19906;-26
2022/10/04 08:01:49;;;;;;;;;;;15.00;98.50;;;;;;5008786;28;19909;-26
2022/10/04 08:04:36;;;;;;;;;;;15.00;98.50;;;;;;5012054;28;19916;-26
2022/10/04 08:07:04;;;;;;;;;;;15.00;98.60;;;;;;5011950;28;19952;-26
2022/10/04 08:09:40;;;;;;;;;;;15.00;98.60;;;;;;5011710;28;19917;-26
2022/10/04 08:12:29;;;;;;;;;;;15.00;98.60;;;;;;5012292;28;19999;-26
2022/10/04 08:15:15;;;;;;;;;;;15.00;98.60;;;;;;5014663;28;19909;-26
2022/10/04 08:17:48;;;;;;;;;;;15.00;98.60;;;;;;5012066;28;19910;-26
2022/10/04 08:20:25;;;;;;;;;;;15.00;98.60;;;;;;5015647;28;19944;-26
2022/10/04 08:23:09;;;;;;;;;;;15.00;98.70;;;;;;5015857;28;19924;-26
2022/10/04 08:25:50;;;;;;;;;;;15.00;98.70;;;;;;5015796;28;19912;-26
2022/10/04 08:31:02;;;;;;;;;;;15.00;98.80;;;;;;5015782;28;19924;-26
2022/10/04 08:33:41;;;;;;;;;;;15.00;98.80;;;;;;5015760;28;19968;-26
2022/10/04 08:36:19;;;;;;;;;;;15.00;98.80;;;;;;5015664;28;19917;-26
2022/10/04 08:38:55;;;;;;;;;;;15.10;98.80;;;;;;5015073;28;19945;-26
2022/10/04 08:41:23;;;;;;;;;;;15.00;97.90;;;;;;5011319;28;19921;-26
2022/10/04 08:43:55;;;;;;;;;;;14.70;98.00;;;;;;5013470;28;19905;-26
2022/10/04 08:46:39;;;;;;;;;;;14.50;98.40;;;;;;5014223;28;19992;-26
2022/10/04 08:49:05;;;;;;;;;;;14.50;98.80;;;;;;5015131;28;19905;-25
2022/10/04 08:51:43;;;;;;;;;;;14.50;99.00;;;;;;5015390;28;19916;-26
2022/10/04 08:54:18;;;;;;;;;;;14.60;98.90;;;;;;5015404;28;19905;-26
2022/10/04 08:57:02;;;;;;;;;;;14.80;98.80;;;;;;5015728;28;19916;-26
2022/10/04 08:59:44;;;;;;;;;;;14.90;98.70;;;;;;5015010;28;19956;-27
2022/10/04 09:02:12;;;;;;;;;;;15.00;98.60;;;;;;5015189;28;19910;-27
2022/10/04 09:04:40;;;;;;;;;;;15.10;98.60;;;;;;5015152;28;19909;-26
2022/10/04 09:07:06;;;;;;;;;;;15.20;98.50;;;;;;5015111;28;19916;-26
2022/10/04 09:09:44;;;;;;;;;;;15.20;98.40;;;;;;5014730;28;19913;-26
2022/10/04 09:12:34;;;;;;;;;;;15.30;98.40;;;;;;5014958;28;19945;-26
2022/10/04 09:15:25;;;;;;;;;;;15.40;98.40;;;;;;5015045;28;19905;-26
2022/10/04 09:18:01;;;;;;;;;;;15.40;98.30;;;;;;5012462;28;19995;-27
2022/10/04 09:20:41;;;;;;;;;;;15.40;98.30;;;;;;5014693;28;19905;-27
2022/10/04 09:23:27;;;;;;;;;;;15.50;98.30;;;;;;5014771;28;19909;-26
2022/10/04 09:25:53;;;;;;;;;;;15.50;98.20;;;;;;5015058;28;19909;-27
2022/10/04 09:28:27;;;;;;;;;;;15.60;98.30;;;;;;5014599;28;20000;-27
2022/10/04 09:31:03;;;;;;;;;;;15.60;98.30;;;;;;5014649;28;20329;-27
2022/10/04 09:33:43;;;;;;;;;;;15.60;98.30;;;;;;5015035;28;19912;-26
2022/10/04 09:36:18;;;;;;;;;;;15.60;98.30;;;;;;5014563;28;20134;-26
2022/10/04 09:39:00;;;;;;;;;;;15.60;98.30;;;;;;5014252;28;20276;-26
2022/10/04 09:41:28;;;;;;;;;;;15.60;98.30;;;;;;5014478;28;19981;-26
2022/10/04 09:44:03;;;;;;;;;;;15.70;98.30;;;;;;5014463;28;20290;-26
2022/10/04 09:46:50;;;;;;;;;;;15.70;98.30;;;;;;5014879;28;19932;-26
2022/10/04 09:49:35;;;;;;;;;;;15.70;98.30;;;;;;5014109;28;20004;-26
2022/10/04 09:52:13;;;;;;;;;;;15.70;98.30;;;;;;5012978;28;19992;-26
2022/10/04 09:54:50;;;;;;;;;;;15.70;98.40;;;;;;5014270;28;20409;-23
2022/10/04 09:57:19;;;;;;;;;;;15.70;98.40;;;;;;5014147;28;20358;-26
2022/10/04 09:59:44;;;;;;;;;;;15.70;98.40;;;;;;5013900;28;20282;-27
2022/10/04 10:02:48;;;;;;;;;;;15.70;98.40;;;;;;5013945;28;19914;-27
2022/10/04 10:05:32;;;;;;;;;;;15.80;98.40;;;;;;4991848;28;20282;-27
2022/10/04 10:07:58;;;;;;;;;;;15.80;98.40;;;;;;5009170;28;20367;-24
2022/10/04 10:13:42;;;;;;;;;;;15.90;98.40;;;;;;5013787;28;19913;-26
2022/10/04 10:16:11;;;;;;;;;;;15.90;98.40;;;;;;5013829;28;19952;-26
2022/10/04 10:18:45;;;;;;;;;;;15.90;98.30;;;;;;5013571;28;19944;-27
2022/10/04 10:21:16;;;;;;;;;;;16.00;98.30;;;;;;5013616;28;19905;-26
2022/10/04 10:23:44;;;;;;;;;;;16.00;98.30;;;;;;5013647;28;20362;-26
2022/10/04 10:26:15;;;;;;;;;;;16.00;98.30;;;;;;5013496;28;19905;-26
2022/10/04 10:28:50;;;;;;;;;;;16.00;98.30;;;;;;5013403;28;19959;-24
2022/10/04 10:31:24;;;;;;;;;;;16.00;98.30;;;;;;5013464;28;19905;-26
2022/10/04 10:33:58;;;;;;;;;;;16.10;98.30;;;;;;5013745;28;20359;-26
2022/10/04 10:36:24;;;;;;;;;;;16.00;98.30;;;;;;5013348;28;19951;-26
2022/10/04 10:38:57;;;;;;;;;;;16.10;98.30;;;;;;5013339;28;20326;-27
2022/10/04 10:41:26;;;;;;;;;;;16.10;98.30;;;;;;5013292;28;20034;-26
2022/10/04 10:43:58;;;;;;;;;;;16.20;98.30;;;;;;5013336;28;20290;-25
2022/10/04 10:46:30;;;;;;;;;;;16.20;98.20;;;;;;5013285;28;19910;-26
2022/10/04 10:49:09;;;;;;;;;;;16.20;98.20;;;;;;5011637;28;19909;-27
2022/10/04 10:51:54;;;;;;;;;;;16.30;98.30;;;;;;5013546;28;19913;-26
2022/10/04 10:54:36;;;;;;;;;;;16.30;98.20;;;;;;5013165;28;20321;-27
2022/10/04 10:57:14;;;;;;;;;;;16.30;98.20;;;;;;5013152;28;19906;-26
2022/10/04 10:59:48;;;;;;;;;;;16.30;98.20;;;;;;5012795;28;19915;-26
2022/10/04 11:02:35;;;;;;;;;;;16.40;98.20;;;;;;5012816;28;20377;-27
2022/10/04 11:05:00;;;;;;;;;;;16.40;98.10;;;;;;5012986;28;19905;-26
2022/10/04 11:07:32;;;;;;;;;;;16.50;98.10;;;;;;5011509;28;19905;-26
2022/10/04 11:10:16;;;;;;;;;;;16.50;98.10;;;;;;5012421;28;19914;-26
2022/10/04 11:12:42;;;;;;;;;;;16.60;98.10;;;;;;5012857;28;19928;-26
2022/10/04 11:15:26;;;;;;;;;;;16.60;98.00;;;;;;5012782;28;20355;-26
2022/10/04 11:18:08;;;;;;;;;;;16.60;98.10;;;;;;5012716;28;20019;-27
2022/10/04 11:20:42;;;;;;;;;;;16.60;98.00;;;;;;5012202;28;19909;-25
2022/10/04 11:23:27;;;;;;;;;;;16.60;96.90;;;;;;5012788;28;19909;-26
2022/10/04 11:26:11;;;;;;;;;;;16.60;96.20;;;;;;5012625;28;19912;-24
2022/10/04 11:28:45;;;;;;;;;;;16.60;96.40;;;;;;5012232;28;19906;-26
2022/10/04 11:31:29;;;;;;;;;;;16.60;96.50;;;;;;5012607;28;19909;-27
2022/10/04 11:34:11;;;;;;;;;;;16.70;96.60;;;;;;5012422;28;20355;-26
2022/10/04 11:36:43;;;;;;;;;;;16.70;96.70;;;;;;5011257;28;19905;-26
2022/10/04 11:39:29;;;;;;;;;;;16.70;96.80;;;;;;5012167;28;19951;-26
2022/10/04 11:42:03;;;;;;;;;;;16.80;96.90;;;;;;5012432;28;19916;-26
2022/10/04 11:44:38;;;;;;;;;;;16.80;97.00;;;;;;5012366;28;19911;-26
2022/10/04 11:47:06;;;;;;;;;;;16.80;97.00;;;;;;5012328;28;20203;-26
2022/10/04 11:49:35;;;;;;;;;;;16.80;97.00;;;;;;5011063;28;20259;-25
2022/10/04 11:52:03;;;;;;;;;;;16.80;97.10;;;;;;5012185;28;20363;-25
2022/10/04 11:54:50;;;;;;;;;;;16.90;97.10;;;;;;5012152;28;19927;-25
2022/10/04 11:57:15;;;;;;;;;;;16.90;97.10;;;;;;5012106;28;19905;-25
2022/10/04 12:00:00;;;;;;;;;;;16.90;97.10;;;;;;5011978;28;19956;-25
2022/10/04 12:02:31;;;;;;;;;;;16.90;97.20;;;;;;5011937;28;19909;-25
2022/10/04 12:05:00;;;;;;;;;;;16.90;97.20;;;;;;5012152;28;20008;-25
2022/10/04 12:07:29;;;;;;;;;;;16.90;97.20;;;;;;5012006;28;20000;-26
2022/10/04 12:10:14;;;;;;;;;;;16.90;97.20;;;;;;5011733;28;19920;-26
2022/10/04 12:13:04;;;;;;;;;;;17.00;97.30;;;;;;5011888;28;20367;-25
2022/10/04 12:15:33;;;;;;;;;;;17.00;97.30;;;;;;5011967;28;19909;-25
2022/10/04 12:18:18;;;;;;;;;;;17.00;97.30;;;;;;5010546;28;20002;-25
2022/10/04 12:20:47;;;;;;;;;;;17.00;97.30;;;;;;5011684;28;19915;-26
2022/10/04 12:23:31;;;;;;;;;;;17.00;97.40;;;;;;5011827;28;19910;-27
2022/10/04 12:25:57;;;;;;;;;;;17.00;97.40;;;;;;5011866;28;20032;-26
2022/10/04 12:28:30;;;;;;;;;;;17.10;97.40;;;;;;5011730;28;19905;-25
2022/10/04 12:31:08;;;;;;;;;;;17.10;97.40;;;;;;5011750;28;19966;-25
2022/10/04 12:33:37;;;;;;;;;;;17.10;97.40;;;;;;5012073;28;20063;-26
2022/10/04 12:36:17;;;;;;;;;;;17.10;97.40;;;;;;5011789;28;19958;-26
2022/10/04 12:38:51;;;;;;;;;;;17.10;97.40;;;;;;5011759;28;20027;-25
2022/10/04 12:41:17;;;;;;;;;;;17.10;97.50;;;;;;5011685;28;20426;-25
2022/10/04 12:44:01;;;;;;;;;;;17.10;97.50;;;;;;5011712;28;19909;-26
2022/10/04 12:46:34;;;;;;;;;;;17.10;97.50;;;;;;5011891;28;19905;-25
2022/10/04 12:49:19;;;;;;;;;;;17.10;97.50;;;;;;5011721;28;19913;-25
2022/10/04 12:51:51;;;;;;;;;;;17.20;97.60;;;;;;5010267;28;19905;-25
2022/10/04 12:54:32;;;;;;;;;;;17.20;97.50;;;;;;5011606;28;19905;-25
2022/10/04 12:57:09;;;;;;;;;;;17.20;97.50;;;;;;5011633;28;19912;-26
2022/10/04 12:59:51;;;;;;;;;;;17.20;97.50;;;;;;5011948;28;19960;-26
2022/10/04 13:02:42;;;;;;;;;;;17.20;97.50;;;;;;5015105;28;19925;-26
2022/10/04 13:05:27;;;;;;;;;;;17.20;97.50;;;;;;5006929;28;19905;-26
2022/10/04 13:08:06;;;;;;;;;;;17.20;97.60;;;;;;5015091;28;20285;-25
2022/10/04 13:10:46;;;;;;;;;;;17.20;97.60;;;;;;5035622;23;19925;-23
2022/10/04 13:13:15;;;;;;;;;;;17.30;97.60;;;;;;5015357;28;20019;-24
2022/10/04 13:15:49;;;;;;;;;;;17.30;97.60;;;;;;5015383;28;19910;-24
2022/10/04 13:18:14;;;;;;;;;;;17.20;97.60;;;;;;5015001;28;20004;-24
2022/10/04 13:20:39;;;;;;;;;;;17.30;97.60;;;;;;5014817;28;20001;-24
2022/10/04 13:23:29;;;;;;;;;;;17.30;97.60;;;;;;5014995;28;19920;-24
2022/10/04 13:25:57;;;;;;;;;;;17.30;97.60;;;;;;5014937;28;20397;-23
2022/10/04 13:28:28;;;;;;;;;;;17.30;97.70;;;;;;5014926;28;19917;-24
2022/10/04 13:31:00;;;;;;;;;;;17.30;97.60;;;;;;5013346;28;19912;-24
2022/10/04 13:33:25;;;;;;;;;;;17.30;97.60;;;;;;5014849;28;19906;-24
2022/10/04 13:35:56;;;;;;;;;;;17.30;97.60;;;;;;5014781;28;19905;-24
2022/10/04 13:38:31;;;;;;;;;;;17.30;97.60;;;;;;5014517;28;20000;-24
2022/10/04 13:40:59;;;;;;;;;;;17.30;97.60;;;;;;5013189;28;20016;-24
2022/10/04 13:43:37;;;;;;;;;;;17.30;97.60;;;;;;5013094;28;20359;-24
2022/10/04 13:46:20;;;;;;;;;;;17.40;97.70;;;;;;5014540;28;20426;-24
2022/10/04 13:49:06;;;;;;;;;;;17.40;97.70;;;;;;5014207;28;19906;-24
2022/10/04 13:51:31;;;;;;;;;;;17.40;97.70;;;;;;5014320;28;19977;-24
2022/10/04 13:56:59;;;;;;;;;;;17.40;97.70;;;;;;5014466;28;19913;-24
2022/10/04 13:59:27;;;;;;;;;;;17.40;97.80;;;;;;5014125;28;19956;-24
2022/10/04 14:02:08;;;;;;;;;;;17.30;97.80;;;;;;5013995;28;20362;-24
2022/10/04 14:04:41;;;;;;;;;;;17.30;97.80;;;;;;5014257;28;19921;-24
2022/10/04 14:07:11;;;;;;;;;;;17.40;97.90;;;;;;5014384;28;20382;-24
2022/10/04 14:09:36;;;;;;;;;;;17.40;97.90;;;;;;5013621;28;19925;-24
2022/10/04 14:12:05;;;;;;;;;;;17.40;97.90;;;;;;5013133;28;19905;-24
2022/10/04 14:14:49;;;;;;;;;;;17.40;97.90;;;;;;5013913;28;20016;-24
2022/10/04 14:17:26;;;;;;;;;;;17.30;97.90;;;;;;5013765;28;19913;-24
2022/10/04 14:20:10;;;;;;;;;;;17.40;98.30;;;;;;5013598;28;19911;-24
2022/10/04 14:22:36;;;;;;;;;;;17.40;97.90;;;;;;5013651;28;20298;-24
2022/10/04 14:25:05;;;;;;;;;;;17.40;97.90;;;;;;5013649;28;19905;-23
2022/10/04 14:27:30;;;;;;;;;;;17.40;97.90;;;;;;5014005;28;19909;-24
2022/10/04 14:29:59;;;;;;;;;;;17.30;97.90;;;;;;5013499;28;19906;-24
2022/10/04 14:32:44;;;;;;;;;;;17.40;97.90;;;;;;5013542;28;19909;-24
2022/10/04 14:35:28;;;;;;;;;;;17.40;98.00;;;;;;5013680;28;20385;-24
2022/10/04 14:38:00;;;;;;;;;;;17.40;98.00;;;;;;5013517;28;19910;-24
2022/10/04 14:40:35;;;;;;;;;;;17.40;98.00;;;;;;5013299;28;19959;-24
2022/10/04 14:43:19;;;;;;;;;;;17.40;98.00;;;;;;5013294;28;19996;-24
2022/10/04 14:45:58;;;;;;;;;;;17.30;98.00;;;;;;5013336;28;19912;-24
2022/10/04 14:48:27;;;;;;;;;;;17.40;98.10;;;;;;5013282;28;19916;-23
2022/10/04 14:50:56;;;;;;;;;;;17.40;98.10;;;;;;5011781;28;19935;-24
2022/10/04 14:53:26;;;;;;;;;;;17.40;98.10;;;;;;5013061;28;19996;-24
2022/10/04 14:55:52;;;;;;;;;;;17.40;98.10;;;;;;5013172;28;19916;-24
2022/10/04 14:58:39;;;;;;;;;;;17.30;98.10;;;;;;5012973;28;19906;-24
2022/10/04 15:01:17;;;;;;;;;;;17.40;98.20;;;;;;5001836;28;19906;-24
2022/10/04 15:03:57;;;;;;;;;;;17.30;98.20;;;;;;5012917;28;19920;-24
2022/10/04 15:06:38;;;;;;;;;;;17.40;98.20;;;;;;5013075;28;20365;-23
2022/10/04 15:09:22;;;;;;;;;;;17.30;98.20;;;;;;5012619;28;19909;-24
2022/10/04 15:11:55;;;;;;;;;;;17.40;98.20;;;;;;5012794;28;20352;-24